Time;durP1;ratioP1;P1;durP2;ratioP2;P2;SDS_P1;SDS_P2;PMS_P1;PMS_P2;Temp;Humidity;BMP_temperature;BMP_pressure;BME280_temperature;BME280_humidity;BME280_pressure;Samples;Min_cycle;Max_cycle;Signal;HPM_P1;HPM_P2
2021/10/16 00:02:19;;;;;;;8.68;4.25;;;14.70;59.30;;;;;;6208176;28;20033;-72
2021/10/16 00:05:28;;;;;;;8.98;4.40;;;14.60;59.20;;;;;;6225574;28;20045;-72
2021/10/16 00:08:29;;;;;;;9.55;5.05;;;14.60;59.30;;;;;;6224337;28;20057;-72
2021/10/16 00:11:30;;;;;;;14.55;4.97;;;14.50;60.00;;;;;;6227036;28;20033;-72
2021/10/16 00:14:31;;;;;;;11.00;5.65;;;14.50;59.50;;;;;;6229703;28;20129;-72
2021/10/16 00:17:32;;;;;;;13.02;5.40;;;14.50;59.60;;;;;;6240351;28;20046;-72
2021/10/16 00:20:33;;;;;;;12.88;4.90;;;14.40;59.60;;;;;;6223920;28;20042;-72
2021/10/16 00:23:34;;;;;;;9.23;5.10;;;14.40;59.60;;;;;;6223758;28;20474;-72
2021/10/16 00:26:35;;;;;;;10.55;5.55;;;14.40;59.70;;;;;;6223708;28;20057;-72
2021/10/16 00:29:36;;;;;;;9.95;5.63;;;14.40;59.90;;;;;;6206774;28;20065;-72
2021/10/16 00:32:36;;;;;;;12.85;6.47;;;14.40;60.00;;;;;;6223556;28;20375;-72
2021/10/16 00:35:37;;;;;;;12.07;5.20;;;14.30;60.20;;;;;;6223770;28;20034;-72
2021/10/16 00:38:38;;;;;;;13.23;6.20;;;14.30;60.40;;;;;;6222901;28;20046;-72
2021/10/16 00:41:39;;;;;;;15.75;5.85;;;14.20;60.40;;;;;;6226810;28;20462;-72
2021/10/16 00:44:40;;;;;;;9.88;5.47;;;14.20;60.50;;;;;;6223554;28;20044;-72
2021/10/16 00:47:42;;;;;;;13.18;4.88;;;14.20;60.60;;;;;;6223674;28;20045;-72
2021/10/16 00:50:43;;;;;;;16.90;6.32;;;14.20;60.70;;;;;;6222835;28;20070;-72
2021/10/16 00:53:43;;;;;;;9.73;4.57;;;14.20;60.70;;;;;;6237546;28;20103;-72
2021/10/16 00:56:45;;;;;;;10.05;5.10;;;14.20;60.60;;;;;;6223275;28;20049;-72
2021/10/16 00:59:46;;;;;;;12.73;5.25;;;14.20;60.50;;;;;;6221828;28;20064;-72
2021/10/16 01:02:48;;;;;;;11.52;5.32;;;14.20;60.50;;;;;;6223192;28;20418;-72
2021/10/16 01:05:51;;;;;;;9.93;5.07;;;14.20;60.50;;;;;;6223157;28;20034;-73
2021/10/16 01:08:52;;;;;;;12.10;5.38;;;14.20;60.40;;;;;;6222888;28;20052;-73
2021/10/16 01:11:56;;;;;;;13.68;5.53;;;14.20;60.40;;;;;;6227930;28;20092;-73
2021/10/16 01:15:02;;;;;;;12.80;4.20;;;14.20;60.50;;;;;;6223780;28;20137;-72
2021/10/16 01:18:04;;;;;;;15.85;5.18;;;14.20;60.50;;;;;;6223071;28;20109;-72
2021/10/16 01:21:06;;;;;;;11.85;4.88;;;14.10;60.40;;;;;;6222868;28;20030;-71
2021/10/16 01:24:08;;;;;;;13.55;4.60;;;14.10;60.50;;;;;;6239109;28;20056;-72
2021/10/16 01:27:11;;;;;;;8.95;4.90;;;14.10;60.50;;;;;;6221221;28;20463;-71
2021/10/16 01:30:16;;;;;;;11.88;5.43;;;14.10;60.40;;;;;;6227545;28;20395;-73
2021/10/16 01:33:17;;;;;;;9.35;4.97;;;14.10;60.40;;;;;;6244461;28;20498;-72
2021/10/16 01:36:21;;;;;;;9.98;5.13;;;14.10;60.40;;;;;;6227870;28;20033;-72
2021/10/16 01:39:23;;;;;;;11.30;6.05;;;14.20;60.60;;;;;;6211229;28;20107;-72
2021/10/16 01:42:24;;;;;;;15.57;5.65;;;14.00;60.60;;;;;;6229659;28;20045;-72
2021/10/16 01:45:36;;;;;;;11.30;4.78;;;14.00;60.70;;;;;;6227828;28;20038;-72
2021/10/16 01:48:40;;;;;;;14.15;5.68;;;13.90;60.80;;;;;;6211608;28;20030;-72
2021/10/16 01:51:44;;;;;;;11.40;5.40;;;13.90;61.00;;;;;;6211731;28;20129;-73
2021/10/16 01:54:46;;;;;;;10.30;4.97;;;13.80;61.10;;;;;;6227257;28;20065;-73
2021/10/16 01:57:49;;;;;;;13.48;6.00;;;13.80;61.30;;;;;;6227614;28;20137;-73
2021/10/16 02:00:50;;;;;;;16.02;6.57;;;13.80;61.30;;;;;;6227102;28;20084;-72
2021/10/16 02:03:51;;;;;;;17.15;4.95;;;13.70;61.30;;;;;;6211201;28;20045;-74
2021/10/16 02:06:57;;;;;;;12.50;6.05;;;13.70;61.30;;;;;;6211807;28;20052;-73
2021/10/16 02:09:58;;;;;;;10.13;5.65;;;13.70;61.40;;;;;;6227017;28;20042;-72
2021/10/16 02:12:59;;;;;;;14.88;5.53;;;13.70;61.60;;;;;;6247331;28;20042;-72
2021/10/16 02:16:05;;;;;;;14.63;6.28;;;13.70;61.60;;;;;;6227215;28;20030;-71
2021/10/16 02:19:29;;;;;;;11.02;5.50;;;13.70;61.60;;;;;;6221858;28;20478;-72
2021/10/16 02:22:31;;;;;;;10.90;5.55;;;13.70;61.60;;;;;;6224388;28;20396;-72
2021/10/16 02:25:32;;;;;;;14.05;5.93;;;13.70;61.60;;;;;;6240760;28;20041;-72
2021/10/16 02:28:34;;;;;;;11.52;5.90;;;13.70;61.60;;;;;;6224273;28;20528;-73
2021/10/16 02:31:53;;;;;;;12.05;5.88;;;13.70;61.60;;;;;;6223747;28;20447;-73
2021/10/16 02:34:54;;;;;;;10.30;5.85;;;13.70;61.80;;;;;;6222726;28;20370;-72
2021/10/16 02:37:56;;;;;;;9.40;5.03;;;13.70;61.80;;;;;;6223830;28;20038;-72
2021/10/16 02:40:56;;;;;;;13.23;5.32;;;13.70;61.70;;;;;;6239075;28;20034;-72
2021/10/16 02:43:57;;;;;;;12.23;5.38;;;13.70;61.70;;;;;;6228218;28;20121;-72
2021/10/16 02:47:00;;;;;;;17.55;6.07;;;13.70;61.60;;;;;;6222851;28;20041;-72
2021/10/16 02:50:01;;;;;;;11.95;5.18;;;13.70;61.70;;;;;;6222231;28;20032;-72
2021/10/16 02:53:02;;;;;;;12.38;4.90;;;13.60;61.80;;;;;;6205797;28;20046;-72
2021/10/16 02:56:04;;;;;;;8.13;4.18;;;13.60;61.80;;;;;;6220967;28;20062;-72
2021/10/16 02:59:05;;;;;;;8.80;4.07;;;13.50;61.80;;;;;;6221686;28;20121;-72
2021/10/16 03:02:07;;;;;;;8.85;4.35;;;13.50;61.90;;;;;;6222654;28;20117;-73
2021/10/16 03:05:09;;;;;;;7.53;4.63;;;13.40;62.00;;;;;;6222586;28;20079;-73
2021/10/16 03:08:09;;;;;;;8.30;4.50;;;13.30;62.20;;;;;;6222303;28;20422;-72
2021/10/16 03:11:11;;;;;;;10.38;4.15;;;13.30;62.40;;;;;;6238561;28;20038;-73
2021/10/16 03:14:14;;;;;;;7.75;4.20;;;13.30;62.60;;;;;;6223807;28;20052;-73
2021/10/16 03:17:17;;;;;;;6.85;4.20;;;13.20;62.60;;;;;;6222251;28;20038;-72
2021/10/16 03:20:18;;;;;;;7.13;3.50;;;13.20;62.80;;;;;;6222110;28;20038;-72
2021/10/16 03:23:20;;;;;;;10.52;4.32;;;13.20;62.90;;;;;;6220372;28;20459;-72
2021/10/16 03:26:21;;;;;;;7.28;3.78;;;13.10;62.90;;;;;;6221807;28;20049;-72
2021/10/16 03:29:22;;;;;;;6.05;3.80;;;13.10;63.00;;;;;;6237795;28;20048;-71
2021/10/16 03:32:23;;;;;;;8.23;3.75;;;13.10;63.00;;;;;;6222943;28;20034;-73
2021/10/16 03:35:24;;;;;;;8.77;4.03;;;13.10;63.00;;;;;;6221556;28;20042;-72
2021/10/16 03:38:26;;;;;;;6.53;3.90;;;13.10;63.10;;;;;;6204984;28;20050;-71
2021/10/16 03:41:27;;;;;;;9.82;4.13;;;13.10;63.10;;;;;;6222670;28;21691;-72
2021/10/16 03:44:28;;;;;;;8.73;4.10;;;13.10;63.20;;;;;;6223597;28;20122;-71
2021/10/16 03:47:30;;;;;;;6.75;3.67;;;13.10;63.10;;;;;;6221159;28;20104;-72
2021/10/16 03:54:48;;;;;;;7.88;3.92;;;13.10;63.50;;;;;;6219404;28;20037;-71
2021/10/16 03:57:52;;;;;;;8.73;4.13;;;13.10;63.60;;;;;;6208229;28;20038;-72
2021/10/16 04:01:00;;;;;;;9.70;4.75;;;13.00;63.60;;;;;;6224556;28;20224;-72
2021/10/16 04:04:01;;;;;;;8.38;4.40;;;13.00;63.70;;;;;;6208703;28;20038;-72
2021/10/16 04:07:02;;;;;;;10.10;3.80;;;13.00;63.80;;;;;;6224759;28;20390;-72
2021/10/16 04:10:03;;;;;;;8.52;4.18;;;13.00;63.70;;;;;;6224918;28;20034;-71
2021/10/16 04:13:04;;;;;;;7.38;4.25;;;13.00;63.70;;;;;;6232000;28;20048;-72
2021/10/16 04:16:09;;;;;;;9.18;4.28;;;12.90;63.70;;;;;;6223995;28;20030;-72
2021/10/16 04:19:10;;;;;;;9.15;4.32;;;12.90;63.80;;;;;;6238422;28;20359;-71
2021/10/16 04:22:11;;;;;;;5.90;3.60;;;12.90;63.80;;;;;;6240601;28;20048;-72
2021/10/16 04:25:12;;;;;;;6.88;3.38;;;12.90;63.80;;;;;;6224015;28;20038;-72
2021/10/16 04:28:13;;;;;;;9.10;4.90;;;12.80;63.70;;;;;;6225050;28;20029;-72
2021/10/16 04:31:31;;;;;;;12.65;4.85;;;12.80;63.80;;;;;;6222582;28;20363;-71
2021/10/16 04:34:32;;;;;;;9.43;4.07;;;12.70;63.90;;;;;;6239155;28;20132;-71
2021/10/16 04:37:34;;;;;;;10.90;4.82;;;12.70;64.00;;;;;;6206114;28;20045;-73
2021/10/16 04:40:37;;;;;;;12.65;4.85;;;12.80;64.20;;;;;;6222911;28;20038;-71
2021/10/16 04:43:41;;;;;;;8.88;3.95;;;12.60;64.20;;;;;;6224586;28;20052;-73
2021/10/16 04:46:42;;;;;;;12.20;4.78;;;12.60;64.30;;;;;;6222201;28;20426;-73
2021/10/16 04:49:45;;;;;;;8.90;4.55;;;12.60;64.40;;;;;;6221917;28;20068;-73
2021/10/16 04:52:49;;;;;;;6.38;4.22;;;12.50;64.40;;;;;;6238808;28;20030;-73
2021/10/16 04:56:00;;;;;;;8.35;4.57;;;12.50;64.40;;;;;;6216810;28;20037;-72
2021/10/16 04:59:01;;;;;;;9.20;4.80;;;12.50;64.40;;;;;;6233694;28;20056;-73
2021/10/16 05:02:02;;;;;;;9.05;4.28;;;12.50;64.40;;;;;;6221450;28;20049;-72
2021/10/16 05:05:05;;;;;;;10.68;5.25;;;12.50;64.60;;;;;;6197461;28;20026;-73
2021/10/16 05:08:06;;;;;;;14.63;5.97;;;12.50;64.60;;;;;;6220491;28;20053;-73
2021/10/16 05:11:08;;;;;;;12.00;6.68;;;12.50;64.70;;;;;;6218855;28;20092;-73
2021/10/16 05:14:09;;;;;;;17.25;6.70;;;12.50;64.80;;;;;;6224306;28;20038;-73
2021/10/16 05:17:10;;;;;;;10.68;4.90;;;12.50;64.90;;;;;;6219931;28;20069;-74
2021/10/16 05:20:12;;;;;;;17.40;7.55;;;12.50;65.00;;;;;;6236200;28;20398;-73
2021/10/16 05:23:21;;;;;;;11.68;6.22;;;12.50;65.10;;;;;;6219321;28;20432;-73
2021/10/16 05:26:24;;;;;;;13.50;5.90;;;12.40;65.10;;;;;;6216878;28;20042;-72
2021/10/16 05:29:25;;;;;;;11.77;6.13;;;12.40;65.20;;;;;;6217969;28;20042;-73
2021/10/16 05:32:26;;;;;;;13.65;5.72;;;12.40;65.30;;;;;;6219427;28;20048;-72
2021/10/16 05:35:27;;;;;;;11.43;5.63;;;12.40;65.30;;;;;;6220542;28;20046;-73
2021/10/16 05:38:28;;;;;;;10.15;6.20;;;12.40;65.30;;;;;;6218775;28;20037;-73
2021/10/16 05:41:30;;;;;;;11.63;6.25;;;12.40;65.30;;;;;;6236507;28;20099;-71
2021/10/16 05:44:31;;;;;;;13.45;5.65;;;12.40;65.30;;;;;;6235586;28;20033;-72
2021/10/16 05:47:36;;;;;;;13.75;6.03;;;12.40;65.40;;;;;;6219058;28;20045;-72
2021/10/16 05:50:40;;;;;;;9.88;4.78;;;12.40;65.40;;;;;;6219226;28;20180;-73
2021/10/16 05:53:43;;;;;;;13.15;5.22;;;12.40;65.50;;;;;;6236481;28;20045;-72
2021/10/16 05:56:44;;;;;;;9.23;4.63;;;12.40;65.50;;;;;;6220465;28;20069;-72
2021/10/16 05:59:45;;;;;;;12.57;4.68;;;12.40;65.60;;;;;;6220333;28;20034;-72
2021/10/16 06:02:46;;;;;;;17.20;6.13;;;12.40;65.50;;;;;;6219875;28;20422;-72
2021/10/16 06:05:57;;;;;;;9.18;4.30;;;12.40;65.50;;;;;;6236335;28;20042;-72
2021/10/16 06:08:59;;;;;;;12.38;4.38;;;12.40;65.40;;;;;;6220236;28;20458;-72
2021/10/16 06:12:01;;;;;;;10.18;4.97;;;12.40;65.30;;;;;;6205437;28;20034;-72
2021/10/16 06:15:03;;;;;;;9.20;4.72;;;12.50;65.50;;;;;;6237471;28;20450;-72
2021/10/16 06:18:10;;;;;;;12.05;4.97;;;12.50;65.40;;;;;;6224349;28;20034;-71
2021/10/16 06:21:11;;;;;;;8.85;5.05;;;12.50;65.40;;;;;;6223643;28;20041;-72
2021/10/16 06:24:15;;;;;;;8.30;4.65;;;12.40;65.30;;;;;;6222233;28;20030;-73
2021/10/16 06:27:23;;;;;;;11.38;4.85;;;12.40;65.30;;;;;;6224150;28;20462;-74
2021/10/16 06:30:25;;;;;;;14.63;5.68;;;12.40;65.30;;;;;;6224616;28;20068;-71
2021/10/16 06:33:26;;;;;;;9.00;5.05;;;12.40;65.30;;;;;;6222933;28;20045;-73
2021/10/16 06:36:27;;;;;;;10.20;4.95;;;12.40;65.30;;;;;;6224012;28;20038;-72
2021/10/16 06:39:28;;;;;;;12.63;5.50;;;12.40;65.30;;;;;;6220652;28;20049;-71
2021/10/16 06:42:34;;;;;;;15.25;5.15;;;12.40;65.20;;;;;;6224372;28;20510;-71
2021/10/16 06:45:53;;;;;;;11.25;5.78;;;12.40;65.30;;;;;;6221716;28;20128;-71
2021/10/16 06:49:03;;;;;;;9.95;5.55;;;12.40;65.20;;;;;;6204874;28;20445;-71
2021/10/16 06:52:04;;;;;;;19.98;6.20;;;12.40;65.20;;;;;;6223740;28;20030;-71
2021/10/16 06:55:06;;;;;;;9.55;4.90;;;12.40;65.10;;;;;;6224698;28;20042;-72
2021/10/16 06:58:08;;;;;;;12.35;5.60;;;12.40;65.10;;;;;;6207132;28;20056;-72
2021/10/16 07:01:09;;;;;;;10.07;5.03;;;12.40;65.10;;;;;;6206342;28;20029;-72
2021/10/16 07:04:19;;;;;;;11.20;4.80;;;12.40;65.10;;;;;;6207221;28;20045;-72
2021/10/16 07:07:23;;;;;;;9.88;4.57;;;12.50;65.10;;;;;;6207610;28;20367;-73
2021/10/16 07:10:31;;;;;;;9.27;4.90;;;12.50;65.00;;;;;;6223322;28;20030;-71
2021/10/16 07:13:32;;;;;;;8.63;5.05;;;12.50;65.10;;;;;;6223674;28;20038;-72
2021/10/16 07:16:35;;;;;;;10.15;5.10;;;12.50;65.00;;;;;;6224413;28;20352;-72
2021/10/16 07:19:36;;;;;;;8.05;4.65;;;12.50;65.00;;;;;;6222929;28;20038;-72
2021/10/16 07:22:37;;;;;;;11.05;5.50;;;12.60;64.90;;;;;;6222951;28;20371;-74
2021/10/16 07:25:38;;;;;;;10.35;5.10;;;12.60;64.80;;;;;;6222436;28;20049;-72
2021/10/16 07:28:38;;;;;;;10.23;5.07;;;12.70;64.80;;;;;;6205217;28;20104;-74
2021/10/16 07:31:39;;;;;;;9.25;5.38;;;12.70;64.80;;;;;;6222712;28;20413;-74
2021/10/16 07:34:40;;;;;;;11.98;6.38;;;12.80;64.80;;;;;;6237898;28;20037;-72
2021/10/16 07:37:41;;;;;;;12.05;6.18;;;12.80;64.70;;;;;;6225002;28;20049;-72
2021/10/16 07:40:42;;;;;;;14.50;6.13;;;12.80;64.50;;;;;;6221822;28;20046;-71
2021/10/16 07:43:43;;;;;;;19.35;6.25;;;12.90;64.50;;;;;;6226610;28;20045;-73
2021/10/16 07:46:45;;;;;;;13.32;6.00;;;13.00;64.40;;;;;;6223508;28;20121;-72
2021/10/16 07:49:46;;;;;;;16.92;6.88;;;13.00;64.30;;;;;;6222843;28;20049;-71
2021/10/16 07:52:47;;;;;;;11.38;6.15;;;13.10;64.40;;;;;;6221248;28;20045;-74
2021/10/16 07:55:49;;;;;;;11.98;5.40;;;13.10;64.20;;;;;;6221109;28;20462;-74
2021/10/16 07:58:50;;;;;;;16.90;6.30;;;13.20;64.10;;;;;;6220459;28;20038;-72
2021/10/16 08:01:51;;;;;;;14.70;5.70;;;13.30;64.00;;;;;;6222741;28;20120;-73
2021/10/16 08:04:52;;;;;;;9.23;5.13;;;13.40;63.70;;;;;;6222455;28;20037;-72
2021/10/16 08:07:52;;;;;;;14.63;5.63;;;13.50;63.50;;;;;;6222127;28;20038;-73
2021/10/16 08:10:55;;;;;;;16.13;6.30;;;13.60;63.30;;;;;;6221439;28;20041;-73
2021/10/16 08:13:56;;;;;;;17.48;7.72;;;13.70;63.10;;;;;;6222899;28;20084;-74
2021/10/16 08:16:57;;;;;;;18.00;6.13;;;13.80;63.00;;;;;;6238555;28;20038;-72
2021/10/16 08:19:58;;;;;;;13.63;6.20;;;14.00;62.90;;;;;;6222647;28;20068;-73
2021/10/16 08:22:59;;;;;;;15.50;5.95;;;14.10;62.50;;;;;;6221913;28;20355;-73
2021/10/16 08:26:00;;;;;;;17.92;5.97;;;14.20;62.10;;;;;;6220433;28;20034;-73
2021/10/16 08:29:01;;;;;;;16.92;6.65;;;14.30;62.10;;;;;;6220643;28;20038;-73
2021/10/16 08:32:02;;;;;;;12.90;6.38;;;14.50;61.90;;;;;;6222153;28;20474;-73
2021/10/16 08:35:03;;;;;;;14.30;5.20;;;14.60;61.40;;;;;;6220249;28;20044;-72
2021/10/16 08:38:04;;;;;;;14.73;5.95;;;14.70;61.10;;;;;;6220142;28;20172;-72
2021/10/16 08:41:08;;;;;;;10.70;5.57;;;14.80;60.70;;;;;;6220011;28;20041;-72
2021/10/16 08:44:09;;;;;;;14.93;5.28;;;14.90;60.30;;;;;;6223397;28;20336;-72
2021/10/16 08:47:12;;;;;;;9.70;5.40;;;15.10;60.00;;;;;;6220537;28;20041;-72
2021/10/16 08:50:14;;;;;;;12.57;5.03;;;15.20;59.70;;;;;;6218793;28;20042;-72
2021/10/16 08:53:15;;;;;;;15.02;5.55;;;15.30;59.50;;;;;;6220529;28;20138;-73
2021/10/16 08:56:20;;;;;;;16.98;6.95;;;15.30;59.20;;;;;;6221378;28;20079;-72
2021/10/16 08:59:21;;;;;;;15.00;7.10;;;15.40;59.60;;;;;;6236614;28;20152;-73
2021/10/16 09:02:21;;;;;;;12.38;6.47;;;15.50;58.80;;;;;;6218902;28;20042;-73
2021/10/16 09:05:22;;;;;;;17.35;8.45;;;15.70;58.60;;;;;;6234759;28;20084;-72
2021/10/16 09:09:04;;;;;;;17.30;7.63;;;15.70;58.40;;;;;;6233063;28;20061;-72
2021/10/16 09:12:11;;;;;;;18.88;7.70;;;15.80;58.30;;;;;;6204056;28;20454;-73
2021/10/16 09:15:22;;;;;;;23.27;10.87;;;15.90;58.00;;;;;;6235288;28;20054;-72
2021/10/16 09:18:23;;;;;;;23.27;10.88;;;16.00;58.00;;;;;;6218111;28;20475;-73
2021/10/16 09:21:26;;;;;;;21.70;10.43;;;16.10;57.30;;;;;;6197904;28;20038;-72
2021/10/16 09:24:30;;;;;;;35.50;13.30;;;16.20;57.20;;;;;;6217141;28;20034;-72
2021/10/16 09:27:32;;;;;;;31.15;10.68;;;16.20;57.10;;;;;;6218464;28;20034;-72
2021/10/16 09:30:32;;;;;;;14.57;6.80;;;16.30;56.90;;;;;;6212426;28;20041;-73
2021/10/16 09:33:46;;;;;;;14.70;7.25;;;16.40;56.40;;;;;;6219941;28;20052;-73
2021/10/16 09:36:47;;;;;;;36.55;14.13;;;16.40;56.20;;;;;;6218596;28;20356;-72
2021/10/16 09:39:48;;;;;;;20.27;7.22;;;16.40;56.20;;;;;;6219444;28;20074;-72
2021/10/16 09:42:49;;;;;;;21.55;8.02;;;16.50;56.20;;;;;;6220779;28;20076;-72
2021/10/16 09:46:11;;;;;;;16.33;6.80;;;16.50;56.10;;;;;;6234569;28;20053;-73
2021/10/16 09:49:12;;;;;;;18.88;6.40;;;16.60;56.60;;;;;;6234616;28;20045;-73
2021/10/16 09:52:15;;;;;;;10.75;5.43;;;16.60;55.90;;;;;;6239857;28;20025;-73
2021/10/16 09:55:17;;;;;;;10.15;4.95;;;16.70;55.80;;;;;;6225038;28;20038;-72
2021/10/16 09:58:19;;;;;;;11.52;5.38;;;16.80;55.70;;;;;;6222701;28;20087;-72
2021/10/16 10:01:21;;;;;;;11.05;5.45;;;17.00;55.60;;;;;;6223749;28;20073;-72
2021/10/16 10:04:24;;;;;;;15.27;7.38;;;17.10;55.40;;;;;;6222442;28;20137;-71
2021/10/16 10:07:25;;;;;;;14.73;6.63;;;17.20;54.60;;;;;;6211324;28;20117;-74
2021/10/16 10:10:29;;;;;;;10.80;5.95;;;17.40;54.50;;;;;;6221878;28;20056;-72
2021/10/16 10:13:30;;;;;;;11.77;5.85;;;17.70;54.10;;;;;;6209594;28;20038;-72
2021/10/16 10:16:36;;;;;;;20.13;7.95;;;18.10;53.70;;;;;;6223246;28;20363;-72
2021/10/16 10:19:42;;;;;;;39.42;14.43;;;18.30;53.10;;;;;;6223423;28;20068;-73
2021/10/16 10:22:47;;;;;;;32.13;13.48;;;18.70;52.60;;;;;;6223104;28;20045;-74
2021/10/16 10:25:47;;;;;;;17.08;8.48;;;18.90;51.70;;;;;;6221778;28;20100;-72
2021/10/16 10:28:57;;;;;;;20.33;9.55;;;19.00;51.30;;;;;;6223062;28;20049;-72
2021/10/16 10:31:59;;;;;;;22.42;8.57;;;19.20;50.90;;;;;;6223475;28;20079;-73
2021/10/16 10:35:08;;;;;;;20.00;8.73;;;19.40;50.70;;;;;;6223322;28;20105;-72
2021/10/16 10:38:41;;;;;;;17.25;7.95;;;19.60;50.20;;;;;;6221993;28;20460;-72
2021/10/16 10:41:42;;;;;;;21.17;10.18;;;19.80;49.60;;;;;;6224669;28;20109;-72
2021/10/16 10:44:53;;;;;;;21.45;9.82;;;20.00;48.90;;;;;;6224178;28;20443;-73
2021/10/16 10:48:02;;;;;;;27.70;9.63;;;20.20;48.70;;;;;;6221009;28;20033;-72
2021/10/16 10:51:02;;;;;;;;;;;20.50;48.20;;;;;;6221445;28;20057;-72
2021/10/16 10:54:18;;;;;;;12.93;5.88;;;20.70;47.50;;;;;;6222742;28;19947;-72
2021/10/16 10:57:42;;;;;;;22.27;9.40;;;21.00;47.00;;;;;;6205941;28;20029;-73
2021/10/16 11:00:43;;;;;;;17.45;9.27;;;21.20;46.60;;;;;;6221622;28;20364;-73
2021/10/16 11:03:44;;;;;;;14.82;5.90;;;21.50;46.20;;;;;;6238051;28;20045;-72
2021/10/16 11:07:01;;;;;;;14.82;6.20;;;21.80;45.80;;;;;;6205389;28;20052;-72
2021/10/16 11:10:02;;;;;;;12.10;5.65;;;21.90;45.20;;;;;;6222140;28;20413;-72
2021/10/16 11:13:16;;;;;;;9.68;5.53;;;22.20;44.80;;;;;;6224896;28;20092;-72
2021/10/16 11:16:17;;;;;;;10.43;5.00;;;22.40;44.50;;;;;;6215857;28;20034;-72
2021/10/16 11:19:18;;;;;;;11.95;6.07;;;22.70;44.10;;;;;;6219675;28;20065;-72
2021/10/16 11:22:24;;;;;;;12.00;5.63;;;23.00;42.90;;;;;;6219209;28;20477;-72
2021/10/16 11:25:29;;;;;;;14.50;5.47;;;23.30;42.40;;;;;;6219521;28;20026;-72
2021/10/16 11:28:32;;;;;;;8.65;5.00;;;23.50;41.90;;;;;;6220768;28;20022;-73
2021/10/16 11:31:33;;;;;;;16.48;5.40;;;23.70;41.70;;;;;;6218477;28;20038;-73
2021/10/16 11:34:34;;;;;;;13.13;5.60;;;24.00;41.30;;;;;;6221674;28;20048;-72
2021/10/16 11:37:39;;;;;;;14.52;5.32;;;24.40;40.00;;;;;;6221464;28;20374;-72
2021/10/16 11:40:40;;;;;;;9.18;4.82;;;24.70;39.40;;;;;;6222769;28;20058;-73
2021/10/16 11:43:42;;;;;;;9.07;4.53;;;25.10;38.60;;;;;;6242466;28;20120;-73
2021/10/16 11:46:44;;;;;;;10.43;5.47;;;25.40;37.90;;;;;;6222637;28;20037;-72
2021/10/16 11:49:45;;;;;;;11.20;5.15;;;25.70;37.00;;;;;;6221885;28;20034;-72
2021/10/16 11:52:51;;;;;;;9.00;4.55;;;26.10;36.20;;;;;;6222505;28;20069;-72
2021/10/16 11:56:13;;;;;;;8.98;4.60;;;26.60;35.60;;;;;;6223600;28;20041;-72
2021/10/16 11:59:19;;;;;;;9.35;4.50;;;26.90;35.00;;;;;;6221239;28;20030;-72
2021/10/16 12:02:34;;;;;;;8.57;5.00;;;27.20;34.40;;;;;;6221937;28;20108;-72
2021/10/16 12:05:36;;;;;;;8.80;4.57;;;27.50;33.80;;;;;;6222368;28;20038;-72
2021/10/16 12:08:47;;;;;;;9.48;5.38;;;27.80;33.20;;;;;;6236540;28;20513;-74
2021/10/16 12:12:00;;;;;;;8.75;5.00;;;28.10;32.90;;;;;;6220828;28;20040;-72
2021/10/16 12:15:01;;;;;;;7.72;4.60;;;28.30;31.80;;;;;;6221662;28;20059;-72
2021/10/16 12:18:03;;;;;;;9.20;3.65;;;28.40;31.70;;;;;;6220758;28;20363;-72
2021/10/16 12:21:05;;;;;;;9.20;3.75;;;28.70;31.20;;;;;;6221540;28;20065;-72
2021/10/16 12:24:12;;;;;;;5.07;4.05;;;29.10;30.30;;;;;;6220793;28;20359;-72
2021/10/16 12:27:15;;;;;;;9.98;4.38;;;29.40;29.80;;;;;;6217971;28;20048;-72
2021/10/16 12:30:15;;;;;;;6.43;3.85;;;29.50;29.40;;;;;;6222016;28;20033;-73
2021/10/16 12:33:16;;;;;;;7.82;4.15;;;29.40;28.90;;;;;;6221445;28;20041;-73
2021/10/16 12:36:43;;;;;;;9.82;4.35;;;28.70;29.60;;;;;;6216490;28;20026;-72
2021/10/16 12:39:46;;;;;;;8.38;3.70;;;27.80;30.60;;;;;;6211618;28;20460;-72
2021/10/16 12:42:47;;;;;;;7.00;3.75;;;27.00;31.80;;;;;;6218983;28;20033;-73
2021/10/16 12:45:48;;;;;;;7.20;3.78;;;26.30;32.70;;;;;;6220044;28;20030;-73
2021/10/16 12:48:52;;;;;;;9.25;3.78;;;25.60;33.50;;;;;;6220110;28;20029;-73
2021/10/16 12:51:53;;;;;;;9.48;2.80;;;25.10;34.30;;;;;;6219367;28;20123;-73
2021/10/16 12:54:57;;;;;;;4.85;3.08;;;24.70;34.90;;;;;;6217685;28;20404;-73
2021/10/16 12:57:59;;;;;;;5.70;2.67;;;24.30;35.60;;;;;;6216777;28;20501;-73
2021/10/16 13:01:00;;;;;;;4.65;3.20;;;23.90;36.10;;;;;;6219073;28;20042;-73
2021/10/16 13:04:01;;;;;;;6.78;3.45;;;23.60;36.50;;;;;;6218018;28;20356;-73
2021/10/16 13:07:02;;;;;;;5.53;3.47;;;23.20;37.10;;;;;;6225230;28;20113;-73
2021/10/16 13:10:03;;;;;;;3.83;2.45;;;23.00;37.80;;;;;;6218130;28;20125;-73
2021/10/16 13:13:04;;;;;;;5.70;3.17;;;22.70;38.30;;;;;;6218971;28;20060;-73
2021/10/16 13:16:05;;;;;;;7.82;3.55;;;22.50;38.60;;;;;;6219652;28;20037;-73
2021/10/16 13:19:05;;;;;;;5.57;3.22;;;22.40;39.00;;;;;;6213808;28;20053;-73
2021/10/16 13:22:06;;;;;;;5.68;3.63;;;22.20;39.20;;;;;;6217998;28;20053;-73
2021/10/16 13:25:09;;;;;;;6.63;3.72;;;22.10;39.40;;;;;;6221328;28;20075;-73
2021/10/16 13:28:10;;;;;;;7.22;4.03;;;22.00;39.70;;;;;;6225420;28;20026;-73
2021/10/16 13:31:11;;;;;;;6.38;3.72;;;22.00;40.00;;;;;;6225518;28;20094;-73
2021/10/16 13:34:12;;;;;;;7.93;4.25;;;22.00;40.20;;;;;;6222328;28;20037;-72
2021/10/16 13:37:13;;;;;;;10.88;4.35;;;21.90;40.50;;;;;;6226061;28;20034;-72
2021/10/16 13:40:14;;;;;;;8.02;3.58;;;21.90;40.80;;;;;;6222529;28;20497;-72
2021/10/16 13:43:16;;;;;;;7.03;3.50;;;21.80;41.00;;;;;;6222449;28;20030;-73
2021/10/16 13:46:17;;;;;;;8.23;3.45;;;21.70;41.70;;;;;;6222671;28;20034;-73
2021/10/16 13:49:18;;;;;;;10.20;3.70;;;21.70;41.20;;;;;;6223149;28;20030;-73
2021/10/16 13:52:19;;;;;;;7.95;3.58;;;21.70;41.30;;;;;;6222989;28;20030;-72
2021/10/16 13:55:20;;;;;;;6.93;3.45;;;21.70;41.40;;;;;;6223411;28;20038;-72
2021/10/16 13:58:21;;;;;;;8.75;3.92;;;21.70;41.40;;;;;;6211775;28;20073;-73
2021/10/16 14:01:22;;;;;;;11.55;4.63;;;21.70;41.40;;;;;;6217463;28;20087;-72
2021/10/16 14:04:23;;;;;;;6.68;4.25;;;21.70;41.50;;;;;;6222003;28;20125;-72
2021/10/16 14:07:24;;;;;;;7.28;4.68;;;21.60;41.50;;;;;;6225814;28;20443;-73
2021/10/16 14:10:25;;;;;;;9.45;4.47;;;21.60;41.60;;;;;;6222543;28;20046;-73
2021/10/16 14:13:26;;;;;;;9.02;4.57;;;21.60;41.60;;;;;;6238443;28;20041;-72
2021/10/16 14:16:27;;;;;;;8.45;4.45;;;21.60;41.70;;;;;;6223519;28;20316;-73
2021/10/16 14:19:28;;;;;;;7.22;4.07;;;21.50;41.70;;;;;;6238254;28;20057;-72
2021/10/16 14:22:29;;;;;;;6.20;4.22;;;21.60;41.80;;;;;;6237970;28;20359;-72
2021/10/16 14:25:30;;;;;;;7.75;4.20;;;21.50;41.80;;;;;;6205435;28;20058;-73
2021/10/16 14:28:35;;;;;;;11.10;4.97;;;21.50;41.80;;;;;;6221439;28;20038;-73
2021/10/16 14:31:36;;;;;;;8.35;4.10;;;21.50;41.80;;;;;;6222229;28;20095;-72
2021/10/16 14:34:38;;;;;;;8.25;4.38;;;21.40;41.70;;;;;;6238113;28;20049;-73
2021/10/16 14:37:39;;;;;;;27.55;4.63;;;21.50;41.80;;;;;;6226202;28;20386;-72
2021/10/16 14:40:40;;;;;;;7.10;4.22;;;21.40;41.70;;;;;;6222286;28;20034;-72
2021/10/16 14:43:41;;;;;;;9.55;4.57;;;21.40;41.80;;;;;;6219812;28;20044;-73
2021/10/16 14:46:42;;;;;;;11.05;4.15;;;21.30;41.80;;;;;;6221091;28;20042;-72
2021/10/16 14:49:42;;;;;;;8.20;4.50;;;21.30;42.00;;;;;;6236967;28;20482;-72
2021/10/16 14:52:43;;;;;;;6.40;3.38;;;21.30;42.00;;;;;;6225483;28;20041;-72
2021/10/16 14:55:44;;;;;;;6.60;4.20;;;21.30;42.10;;;;;;6213416;28;20041;-72
2021/10/16 14:58:45;;;;;;;16.50;3.97;;;21.30;42.20;;;;;;6213724;28;20117;-73
2021/10/16 15:01:46;;;;;;;10.13;5.38;;;21.20;42.20;;;;;;6218523;28;20050;-72
2021/10/16 15:04:46;;;;;;;7.45;3.92;;;21.20;42.20;;;;;;6222479;28;20316;-72
2021/10/16 15:07:47;;;;;;;7.07;4.03;;;21.20;42.30;;;;;;6223575;28;20442;-72
2021/10/16 15:10:48;;;;;;;10.38;5.25;;;21.20;42.40;;;;;;6222150;28;20038;-73
2021/10/16 15:13:51;;;;;;;9.25;4.07;;;21.20;42.50;;;;;;6221979;28;20114;-72
2021/10/16 15:16:52;;;;;;;8.82;4.95;;;21.10;42.50;;;;;;6221442;28;20034;-73
2021/10/16 15:19:53;;;;;;;9.60;4.78;;;21.10;42.50;;;;;;6219752;28;20402;-75
2021/10/16 15:22:53;;;;;;;12.65;4.78;;;21.10;42.60;;;;;;6222692;28;20075;-72
2021/10/16 15:25:54;;;;;;;12.75;4.80;;;21.00;42.60;;;;;;6225359;28;20030;-72
2021/10/16 15:28:55;;;;;;;10.80;4.80;;;21.00;42.70;;;;;;6203074;28;20450;-72
2021/10/16 15:31:56;;;;;;;16.75;4.80;;;21.00;43.50;;;;;;6219486;28;20344;-73
2021/10/16 15:34:57;;;;;;;9.43;4.57;;;21.00;42.90;;;;;;6203597;28;20105;-72
2021/10/16 15:37:58;;;;;;;7.82;4.32;;;20.90;42.90;;;;;;6212377;28;20037;-73
2021/10/16 15:40:59;;;;;;;8.65;4.47;;;20.90;43.00;;;;;;6219929;28;20068;-72
2021/10/16 15:44:00;;;;;;;11.02;4.68;;;20.80;43.10;;;;;;6220013;28;20030;-73
2021/10/16 15:47:00;;;;;;;10.15;4.32;;;20.80;43.20;;;;;;6197107;28;20049;-72
2021/10/16 15:50:03;;;;;;;12.10;4.30;;;20.80;43.40;;;;;;6236431;28;20038;-72